sensor_id;sensor_type;location;lat;lon;timestamp;temperature;humidity
54264;DHT22;40178;53.042;6.406;2023-05-13T00:00:50;11.50;83.80
54264;DHT22;40178;53.042;6.406;2023-05-13T00:03:16;11.50;88.60
54264;DHT22;40178;53.042;6.406;2023-05-13T00:05:41;11.40;89.30
54264;DHT22;40178;53.042;6.406;2023-05-13T00:08:07;11.40;89.50
54264;DHT22;40178;53.042;6.406;2023-05-13T00:10:33;11.40;89.70
54264;DHT22;40178;53.042;6.406;2023-05-13T00:12:59;11.30;88.60
54264;DHT22;40178;53.042;6.406;2023-05-13T00:15:25;11.30;90.10
54264;DHT22;40178;53.042;6.406;2023-05-13T00:17:51;11.20;91.90
54264;DHT22;40178;53.042;6.406;2023-05-13T00:20:16;11.20;90.80
54264;DHT22;40178;53.042;6.406;2023-05-13T00:22:42;11.10;91.10
54264;DHT22;40178;53.042;6.406;2023-05-13T00:25:08;11.10;92.20
54264;DHT22;40178;53.042;6.406;2023-05-13T00:27:34;11.10;92.40
54264;DHT22;40178;53.042;6.406;2023-05-13T00:29:59;11.10;92.70
54264;DHT22;40178;53.042;6.406;2023-05-13T00:32:26;11.10;92.70
54264;DHT22;40178;53.042;6.406;2023-05-13T00:34:51;11.00;93.20
54264;DHT22;40178;53.042;6.406;2023-05-13T00:37:17;10.90;94.10
54264;DHT22;40178;53.042;6.406;2023-05-13T00:39:43;10.90;96.50
54264;DHT22;40178;53.042;6.406;2023-05-13T00:42:08;10.80;96.90
54264;DHT22;40178;53.042;6.406;2023-05-13T00:44:38;10.80;98.20
54264;DHT22;40178;53.042;6.406;2023-05-13T00:47:08;10.80;98.30
54264;DHT22;40178;53.042;6.406;2023-05-13T00:49:35;10.70;99.20
54264;DHT22;40178;53.042;6.406;2023-05-13T00:52:01;10.70;99.90
54264;DHT22;40178;53.042;6.406;2023-05-13T00:54:27;10.60;99.90
54264;DHT22;40178;53.042;6.406;2023-05-13T00:56:55;10.50;99.90
54264;DHT22;40178;53.042;6.406;2023-05-13T00:59:23;10.50;99.90
54264;DHT22;40178;53.042;6.406;2023-05-13T01:10:16;10.50;99.90
54264;DHT22;40178;53.042;6.406;2023-05-13T01:12:45;10.50;99.90
54264;DHT22;40178;53.042;6.406;2023-05-13T01:15:21;10.60;99.90
54264;DHT22;40178;53.042;6.406;2023-05-13T01:17:56;10.40;99.90
54264;DHT22;40178;53.042;6.406;2023-05-13T01:20:26;10.40;99.90
54264;DHT22;40178;53.042;6.406;2023-05-13T01:22:51;10.40;99.90
54264;DHT22;40178;53.042;6.406;2023-05-13T01:25:17;10.40;99.90
54264;DHT22;40178;53.042;6.406;2023-05-13T01:27:43;10.30;99.90
54264;DHT22;40178;53.042;6.406;2023-05-13T01:30:09;10.20;99.90
54264;DHT22;40178;53.042;6.406;2023-05-13T01:32:36;10.20;99.90
54264;DHT22;40178;53.042;6.406;2023-05-13T01:35:03;10.10;99.90
54264;DHT22;40178;53.042;6.406;2023-05-13T01:37:29;10.10;99.90
54264;DHT22;40178;53.042;6.406;2023-05-13T01:39:55;10.10;99.90
54264;DHT22;40178;53.042;6.406;2023-05-13T01:42:25;10.10;99.90
54264;DHT22;40178;53.042;6.406;2023-05-13T01:44:51;10.10;99.90
54264;DHT22;40178;53.042;6.406;2023-05-13T01:47:16;10.10;99.90
54264;DHT22;40178;53.042;6.406;2023-05-13T01:49:42;10.10;99.90
54264;DHT22;40178;53.042;6.406;2023-05-13T01:52:08;10.10;99.90
54264;DHT22;40178;53.042;6.406;2023-05-13T01:54:33;10.10;99.90
54264;DHT22;40178;53.042;6.406;2023-05-13T01:56:59;10.00;99.90
54264;DHT22;40178;53.042;6.406;2023-05-13T01:59:24;10.00;99.90
54264;DHT22;40178;53.042;6.406;2023-05-13T02:01:50;10.00;99.90
54264;DHT22;40178;53.042;6.406;2023-05-13T02:04:16;10.00;99.90
54264;DHT22;40178;53.042;6.406;2023-05-13T02:06:41;10.00;99.90
54264;DHT22;40178;53.042;6.406;2023-05-13T02:09:07;10.00;99.90
54264;DHT22;40178;53.042;6.406;2023-05-13T02:11:33;10.00;99.90
54264;DHT22;40178;53.042;6.406;2023-05-13T02:14:00;10.00;99.90
54264;DHT22;40178;53.042;6.406;2023-05-13T02:16:25;9.90;99.90
54264;DHT22;40178;53.042;6.406;2023-05-13T02:18:51;9.90;99.90
54264;DHT22;40178;53.042;6.406;2023-05-13T02:21:16;9.90;99.90
54264;DHT22;40178;53.042;6.406;2023-05-13T02:23:42;9.90;99.90
54264;DHT22;40178;53.042;6.406;2023-05-13T02:26:08;9.80;99.90
54264;DHT22;40178;53.042;6.406;2023-05-13T02:28:33;9.80;99.90
54264;DHT22;40178;53.042;6.406;2023-05-13T02:30:59;9.80;99.90
54264;DHT22;40178;53.042;6.406;2023-05-13T02:33:25;9.80;99.90
54264;DHT22;40178;53.042;6.406;2023-05-13T02:35:50;9.80;99.90
54264;DHT22;40178;53.042;6.406;2023-05-13T02:38:16;9.80;99.90
54264;DHT22;40178;53.042;6.406;2023-05-13T02:40:42;9.80;99.90
54264;DHT22;40178;53.042;6.406;2023-05-13T02:43:07;9.80;99.90
54264;DHT22;40178;53.042;6.406;2023-05-13T02:45:33;9.80;99.90
54264;DHT22;40178;53.042;6.406;2023-05-13T02:47:59;9.70;99.90
54264;DHT22;40178;53.042;6.406;2023-05-13T02:50:24;9.70;99.90
54264;DHT22;40178;53.042;6.406;2023-05-13T02:52:50;9.70;99.90
54264;DHT22;40178;53.042;6.406;2023-05-13T02:55:16;9.70;99.90
54264;DHT22;40178;53.042;6.406;2023-05-13T02:57:42;9.70;99.90
54264;DHT22;40178;53.042;6.406;2023-05-13T03:00:08;9.70;99.90
54264;DHT22;40178;53.042;6.406;2023-05-13T03:02:34;9.70;99.90
54264;DHT22;40178;53.042;6.406;2023-05-13T03:05:00;9.70;99.90
54264;DHT22;40178;53.042;6.406;2023-05-13T03:07:25;9.80;99.90
54264;DHT22;40178;53.042;6.406;2023-05-13T03:09:51;9.80;99.90
54264;DHT22;40178;53.042;6.406;2023-05-13T03:12:17;9.80;99.90
54264;DHT22;40178;53.042;6.406;2023-05-13T03:14:42;9.80;99.90
54264;DHT22;40178;53.042;6.406;2023-05-13T03:17:09;9.80;99.90
54264;DHT22;40178;53.042;6.406;2023-05-13T03:19:36;9.80;99.90
54264;DHT22;40178;53.042;6.406;2023-05-13T03:22:02;9.80;99.90
54264;DHT22;40178;53.042;6.406;2023-05-13T03:24:28;9.80;99.90
54264;DHT22;40178;53.042;6.406;2023-05-13T03:26:54;9.80;99.90
54264;DHT22;40178;53.042;6.406;2023-05-13T03:29:20;9.80;99.90
54264;DHT22;40178;53.042;6.406;2023-05-13T03:31:46;9.80;99.90
54264;DHT22;40178;53.042;6.406;2023-05-13T03:34:11;9.70;99.90
54264;DHT22;40178;53.042;6.406;2023-05-13T03:36:37;9.80;99.90
54264;DHT22;40178;53.042;6.406;2023-05-13T03:39:02;9.70;99.90
54264;DHT22;40178;53.042;6.406;2023-05-13T03:41:28;9.80;99.90
54264;DHT22;40178;53.042;6.406;2023-05-13T03:43:54;9.80;99.90
54264;DHT22;40178;53.042;6.406;2023-05-13T03:46:19;9.80;99.90
54264;DHT22;40178;53.042;6.406;2023-05-13T03:48:46;9.80;99.90
54264;DHT22;40178;53.042;6.406;2023-05-13T03:51:12;9.80;99.90
54264;DHT22;40178;53.042;6.406;2023-05-13T03:53:37;9.80;99.90
54264;DHT22;40178;53.042;6.406;2023-05-13T03:56:03;9.80;99.90
54264;DHT22;40178;53.042;6.406;2023-05-13T03:58:29;9.80;99.90
54264;DHT22;40178;53.042;6.406;2023-05-13T04:00:54;9.90;99.90
54264;DHT22;40178;53.042;6.406;2023-05-13T04:03:21;9.80;99.90
54264;DHT22;40178;53.042;6.406;2023-05-13T04:05:47;9.80;99.90
54264;DHT22;40178;53.042;6.406;2023-05-13T04:08:13;9.80;99.90
54264;DHT22;40178;53.042;6.406;2023-05-13T04:10:38;9.80;99.90
54264;DHT22;40178;53.042;6.406;2023-05-13T04:13:04;9.80;99.90
54264;DHT22;40178;53.042;6.406;2023-05-13T04:15:30;9.90;99.90
54264;DHT22;40178;53.042;6.406;2023-05-13T04:17:58;10.00;99.90
54264;DHT22;40178;53.042;6.406;2023-05-13T04:20:24;10.00;99.90
54264;DHT22;40178;53.042;6.406;2023-05-13T04:22:50;10.00;99.90
54264;DHT22;40178;53.042;6.406;2023-05-13T04:25:16;10.00;99.90
54264;DHT22;40178;53.042;6.406;2023-05-13T04:27:42;10.00;99.90
54264;DHT22;40178;53.042;6.406;2023-05-13T04:30:08;10.10;99.90
54264;DHT22;40178;53.042;6.406;2023-05-13T04:32:34;10.00;99.90
54264;DHT22;40178;53.042;6.406;2023-05-13T04:35:00;10.10;99.90
54264;DHT22;40178;53.042;6.406;2023-05-13T04:37:26;10.10;99.90
54264;DHT22;40178;53.042;6.406;2023-05-13T04:39:51;10.20;99.90
54264;DHT22;40178;53.042;6.406;2023-05-13T04:42:17;10.20;99.90
54264;DHT22;40178;53.042;6.406;2023-05-13T04:44:43;10.20;99.90
54264;DHT22;40178;53.042;6.406;2023-05-13T04:47:09;10.20;99.90
54264;DHT22;40178;53.042;6.406;2023-05-13T04:49:35;10.30;99.90
54264;DHT22;40178;53.042;6.406;2023-05-13T04:52:01;10.30;99.90
54264;DHT22;40178;53.042;6.406;2023-05-13T04:54:27;10.40;99.90
54264;DHT22;40178;53.042;6.406;2023-05-13T04:56:53;10.40;99.90
54264;DHT22;40178;53.042;6.406;2023-05-13T04:59:19;10.40;99.90
54264;DHT22;40178;53.042;6.406;2023-05-13T05:01:45;10.40;99.90
54264;DHT22;40178;53.042;6.406;2023-05-13T05:04:11;10.50;99.90
54264;DHT22;40178;53.042;6.406;2023-05-13T05:06:37;10.50;99.90
54264;DHT22;40178;53.042;6.406;2023-05-13T05:09:02;10.50;99.90
54264;DHT22;40178;53.042;6.406;2023-05-13T05:11:28;10.60;99.90
54264;DHT22;40178;53.042;6.406;2023-05-13T05:13:53;10.60;99.90
54264;DHT22;40178;53.042;6.406;2023-05-13T05:16:19;10.70;99.90
54264;DHT22;40178;53.042;6.406;2023-05-13T05:18:45;10.80;99.90
54264;DHT22;40178;53.042;6.406;2023-05-13T05:21:11;10.90;99.90
54264;DHT22;40178;53.042;6.406;2023-05-13T05:23:37;11.00;99.90
54264;DHT22;40178;53.042;6.406;2023-05-13T05:26:02;11.10;99.90
54264;DHT22;40178;53.042;6.406;2023-05-13T05:28:29;11.20;99.90
54264;DHT22;40178;53.042;6.406;2023-05-13T05:30:55;11.40;99.90
54264;DHT22;40178;53.042;6.406;2023-05-13T05:33:21;11.40;99.90
54264;DHT22;40178;53.042;6.406;2023-05-13T05:35:47;11.60;99.90
54264;DHT22;40178;53.042;6.406;2023-05-13T05:38:13;11.80;99.90
54264;DHT22;40178;53.042;6.406;2023-05-13T05:40:41;11.90;99.90
54264;DHT22;40178;53.042;6.406;2023-05-13T05:43:07;12.00;99.90
54264;DHT22;40178;53.042;6.406;2023-05-13T05:45:37;12.10;99.90
54264;DHT22;40178;53.042;6.406;2023-05-13T05:48:03;12.20;99.90
54264;DHT22;40178;53.042;6.406;2023-05-13T05:50:29;12.30;99.90
54264;DHT22;40178;53.042;6.406;2023-05-13T05:52:55;12.50;99.90
54264;DHT22;40178;53.042;6.406;2023-05-13T05:55:21;12.60;99.90
54264;DHT22;40178;53.042;6.406;2023-05-13T05:57:47;12.70;99.90
54264;DHT22;40178;53.042;6.406;2023-05-13T06:00:13;12.70;99.90
54264;DHT22;40178;53.042;6.406;2023-05-13T06:02:39;12.90;99.90
54264;DHT22;40178;53.042;6.406;2023-05-13T06:05:06;13.00;99.90
54264;DHT22;40178;53.042;6.406;2023-05-13T06:07:31;13.20;99.90
54264;DHT22;40178;53.042;6.406;2023-05-13T06:09:57;13.20;99.90
54264;DHT22;40178;53.042;6.406;2023-05-13T06:12:23;13.40;99.90
54264;DHT22;40178;53.042;6.406;2023-05-13T06:14:48;13.50;99.90
54264;DHT22;40178;53.042;6.406;2023-05-13T06:17:14;13.50;99.90
54264;DHT22;40178;53.042;6.406;2023-05-13T06:19:40;13.70;99.90
54264;DHT22;40178;53.042;6.406;2023-05-13T06:22:10;13.60;99.90
54264;DHT22;40178;53.042;6.406;2023-05-13T06:24:36;13.80;99.90
54264;DHT22;40178;53.042;6.406;2023-05-13T06:27:02;13.90;98.00
54264;DHT22;40178;53.042;6.406;2023-05-13T06:29:28;14.00;99.90
54264;DHT22;40178;53.042;6.406;2023-05-13T06:31:54;14.10;99.90
54264;DHT22;40178;53.042;6.406;2023-05-13T06:34:19;14.20;99.90
54264;DHT22;40178;53.042;6.406;2023-05-13T06:36:45;14.30;76.70
54264;DHT22;40178;53.042;6.406;2023-05-13T06:39:11;14.40;94.40
54264;DHT22;40178;53.042;6.406;2023-05-13T06:41:37;14.50;88.50
54264;DHT22;40178;53.042;6.406;2023-05-13T06:44:04;14.60;98.50
54264;DHT22;40178;53.042;6.406;2023-05-13T06:46:29;14.70;97.00
54264;DHT22;40178;53.042;6.406;2023-05-13T06:48:55;14.80;99.90
54264;DHT22;40178;53.042;6.406;2023-05-13T06:51:22;14.90;94.80
54264;DHT22;40178;53.042;6.406;2023-05-13T06:53:47;15.10;80.20
54264;DHT22;40178;53.042;6.406;2023-05-13T06:56:13;15.00;92.80
54264;DHT22;40178;53.042;6.406;2023-05-13T06:58:38;15.10;91.60
54264;DHT22;40178;53.042;6.406;2023-05-13T07:01:04;15.20;95.20
54264;DHT22;40178;53.042;6.406;2023-05-13T07:03:30;15.30;95.10
54264;DHT22;40178;53.042;6.406;2023-05-13T07:05:55;15.40;96.20
54264;DHT22;40178;53.042;6.406;2023-05-13T07:08:21;15.40;94.70
54264;DHT22;40178;53.042;6.406;2023-05-13T07:10:47;15.50;92.00
54264;DHT22;40178;53.042;6.406;2023-05-13T07:13:13;15.60;94.70
54264;DHT22;40178;53.042;6.406;2023-05-13T07:15:38;15.80;92.20
54264;DHT22;40178;53.042;6.406;2023-05-13T07:18:04;15.80;63.10
54264;DHT22;40178;53.042;6.406;2023-05-13T07:20:30;15.90;87.70
54264;DHT22;40178;53.042;6.406;2023-05-13T07:22:56;16.00;82.20
54264;DHT22;40178;53.042;6.406;2023-05-13T07:25:21;16.10;71.20
54264;DHT22;40178;53.042;6.406;2023-05-13T07:27:47;16.20;52.70
54264;DHT22;40178;53.042;6.406;2023-05-13T07:30:13;16.20;43.90
54264;DHT22;40178;53.042;6.406;2023-05-13T07:32:39;16.40;3.30
54264;DHT22;40178;53.042;6.406;2023-05-13T07:35:06;16.40;1.00
54264;DHT22;40178;53.042;6.406;2023-05-13T07:37:32;16.50;1.00
54264;DHT22;40178;53.042;6.406;2023-05-13T07:39:57;16.60;1.00
54264;DHT22;40178;53.042;6.406;2023-05-13T07:42:24;16.80;1.00
54264;DHT22;40178;53.042;6.406;2023-05-13T07:44:50;16.80;1.00
54264;DHT22;40178;53.042;6.406;2023-05-13T07:47:17;16.90;1.00
54264;DHT22;40178;53.042;6.406;2023-05-13T07:49:43;16.90;1.00
54264;DHT22;40178;53.042;6.406;2023-05-13T07:52:08;17.00;1.00
54264;DHT22;40178;53.042;6.406;2023-05-13T07:54:34;17.10;1.00
54264;DHT22;40178;53.042;6.406;2023-05-13T07:56:59;17.10;1.00
54264;DHT22;40178;53.042;6.406;2023-05-13T07:59:25;17.10;1.00
54264;DHT22;40178;53.042;6.406;2023-05-13T08:01:51;17.20;1.00
54264;DHT22;40178;53.042;6.406;2023-05-13T08:04:16;17.30;1.00
54264;DHT22;40178;53.042;6.406;2023-05-13T08:06:42;17.30;1.00
54264;DHT22;40178;53.042;6.406;2023-05-13T08:09:08;17.40;1.00
54264;DHT22;40178;53.042;6.406;2023-05-13T08:11:36;17.50;1.00
54264;DHT22;40178;53.042;6.406;2023-05-13T08:14:03;17.60;1.00
54264;DHT22;40178;53.042;6.406;2023-05-13T08:16:29;17.60;1.00
54264;DHT22;40178;53.042;6.406;2023-05-13T08:18:55;17.70;1.00
54264;DHT22;40178;53.042;6.406;2023-05-13T08:21:21;17.80;99.90
54264;DHT22;40178;53.042;6.406;2023-05-13T08:23:49;17.90;9.30
54264;DHT22;40178;53.042;6.406;2023-05-13T08:26:15;18.00;99.90
54264;DHT22;40178;53.042;6.406;2023-05-13T08:28:41;17.90;99.90
54264;DHT22;40178;53.042;6.406;2023-05-13T08:31:07;18.00;1.00
54264;DHT22;40178;53.042;6.406;2023-05-13T08:33:32;18.10;1.00
54264;DHT22;40178;53.042;6.406;2023-05-13T08:35:59;18.20;1.00
54264;DHT22;40178;53.042;6.406;2023-05-13T08:38:25;18.30;99.90
54264;DHT22;40178;53.042;6.406;2023-05-13T08:40:51;18.40;1.00
54264;DHT22;40178;53.042;6.406;2023-05-13T08:43:18;18.40;99.90
54264;DHT22;40178;53.042;6.406;2023-05-13T08:45:45;18.40;99.90
54264;DHT22;40178;53.042;6.406;2023-05-13T08:48:14;18.40;99.90
54264;DHT22;40178;53.042;6.406;2023-05-13T08:50:40;18.40;99.90
54264;DHT22;40178;53.042;6.406;2023-05-13T08:53:06;18.50;99.90
54264;DHT22;40178;53.042;6.406;2023-05-13T08:55:32;18.60;99.90
54264;DHT22;40178;53.042;6.406;2023-05-13T08:57:58;18.80;99.90
54264;DHT22;40178;53.042;6.406;2023-05-13T09:00:24;18.90;99.90
54264;DHT22;40178;53.042;6.406;2023-05-13T09:02:50;19.00;99.90
54264;DHT22;40178;53.042;6.406;2023-05-13T09:05:16;19.00;1.00
54264;DHT22;40178;53.042;6.406;2023-05-13T09:07:43;19.00;99.90
54264;DHT22;40178;53.042;6.406;2023-05-13T09:10:09;19.10;1.00
54264;DHT22;40178;53.042;6.406;2023-05-13T09:12:46;19.10;1.00
54264;DHT22;40178;53.042;6.406;2023-05-13T09:15:18;19.20;1.00
54264;DHT22;40178;53.042;6.406;2023-05-13T09:17:47;19.30;99.90
54264;DHT22;40178;53.042;6.406;2023-05-13T09:20:14;19.40;1.00
54264;DHT22;40178;53.042;6.406;2023-05-13T09:22:44;19.40;99.90
54264;DHT22;40178;53.042;6.406;2023-05-13T09:25:11;19.50;1.00
54264;DHT22;40178;53.042;6.406;2023-05-13T09:27:40;19.50;99.90
54264;DHT22;40178;53.042;6.406;2023-05-13T09:30:06;19.70;99.90
54264;DHT22;40178;53.042;6.406;2023-05-13T09:32:32;19.70;1.00
54264;DHT22;40178;53.042;6.406;2023-05-13T09:35:08;19.80;1.00
54264;DHT22;40178;53.042;6.406;2023-05-13T09:37:34;19.90;58.50
54264;DHT22;40178;53.042;6.406;2023-05-13T09:40:00;19.90;99.90
54264;DHT22;40178;53.042;6.406;2023-05-13T09:42:27;20.00;99.90
54264;DHT22;40178;53.042;6.406;2023-05-13T09:44:52;20.10;99.90
54264;DHT22;40178;53.042;6.406;2023-05-13T09:47:18;20.10;99.90
54264;DHT22;40178;53.042;6.406;2023-05-13T09:49:54;20.20;99.90
54264;DHT22;40178;53.042;6.406;2023-05-13T09:52:21;20.10;1.00
54264;DHT22;40178;53.042;6.406;2023-05-13T09:54:47;20.20;99.90
54264;DHT22;40178;53.042;6.406;2023-05-13T09:57:13;20.40;1.00
54264;DHT22;40178;53.042;6.406;2023-05-13T09:59:40;20.40;1.00
54264;DHT22;40178;53.042;6.406;2023-05-13T10:02:06;20.60;99.90
54264;DHT22;40178;53.042;6.406;2023-05-13T10:04:32;20.60;99.90
54264;DHT22;40178;53.042;6.406;2023-05-13T10:07:01;20.70;1.00
54264;DHT22;40178;53.042;6.406;2023-05-13T10:09:32;20.70;1.00
54264;DHT22;40178;53.042;6.406;2023-05-13T10:11:59;20.90;99.90
54264;DHT22;40178;53.042;6.406;2023-05-13T10:14:26;20.90;99.90
54264;DHT22;40178;53.042;6.406;2023-05-13T10:16:52;21.00;99.90
54264;DHT22;40178;53.042;6.406;2023-05-13T10:19:18;21.00;99.90
54264;DHT22;40178;53.042;6.406;2023-05-13T10:21:46;21.10;99.90
54264;DHT22;40178;53.042;6.406;2023-05-13T10:24:13;21.10;1.00
54264;DHT22;40178;53.042;6.406;2023-05-13T10:26:39;21.10;1.00
54264;DHT22;40178;53.042;6.406;2023-05-13T10:29:06;21.30;1.00
54264;DHT22;40178;53.042;6.406;2023-05-13T10:31:33;21.30;1.00
54264;DHT22;40178;53.042;6.406;2023-05-13T10:33:59;21.40;1.00
54264;DHT22;40178;53.042;6.406;2023-05-13T10:42:27;21.50;97.90
54264;DHT22;40178;53.042;6.406;2023-05-13T10:44:56;21.50;2.50
54264;DHT22;40178;53.042;6.406;2023-05-13T10:47:22;21.70;66.50
54264;DHT22;40178;53.042;6.406;2023-05-13T10:49:51;21.70;15.70
54264;DHT22;40178;53.042;6.406;2023-05-13T10:52:20;21.70;1.00
54264;DHT22;40178;53.042;6.406;2023-05-13T10:55:00;21.70;1.00
54264;DHT22;40178;53.042;6.406;2023-05-13T10:57:27;21.80;1.00
54264;DHT22;40178;53.042;6.406;2023-05-13T11:00:16;21.70;1.00
54264;DHT22;40178;53.042;6.406;2023-05-13T11:02:43;21.80;1.00
54264;DHT22;40178;53.042;6.406;2023-05-13T11:05:14;22.00;1.00
54264;DHT22;40178;53.042;6.406;2023-05-13T11:07:56;22.10;1.00
54264;DHT22;40178;53.042;6.406;2023-05-13T11:10:26;22.20;99.90
54264;DHT22;40178;53.042;6.406;2023-05-13T11:13:20;22.30;99.90
54264;DHT22;40178;53.042;6.406;2023-05-13T11:15:52;22.20;99.90
54264;DHT22;40178;53.042;6.406;2023-05-13T11:18:19;22.30;99.90
54264;DHT22;40178;53.042;6.406;2023-05-13T11:20:54;22.20;99.90
54264;DHT22;40178;53.042;6.406;2023-05-13T11:23:20;22.30;99.90
54264;DHT22;40178;53.042;6.406;2023-05-13T11:26:08;22.40;99.90
54264;DHT22;40178;53.042;6.406;2023-05-13T11:28:56;22.50;99.90
54264;DHT22;40178;53.042;6.406;2023-05-13T11:31:22;22.60;99.90
54264;DHT22;40178;53.042;6.406;2023-05-13T11:34:09;22.50;99.90
54264;DHT22;40178;53.042;6.406;2023-05-13T11:36:36;22.40;99.90
54264;DHT22;40178;53.042;6.406;2023-05-13T11:39:10;22.50;99.90
54264;DHT22;40178;53.042;6.406;2023-05-13T11:41:39;22.40;99.90
54264;DHT22;40178;53.042;6.406;2023-05-13T11:44:05;22.30;99.90
54264;DHT22;40178;53.042;6.406;2023-05-13T11:46:31;22.30;1.00
54264;DHT22;40178;53.042;6.406;2023-05-13T11:48:56;22.40;1.00
54264;DHT22;40178;53.042;6.406;2023-05-13T11:51:23;22.50;1.00
54264;DHT22;40178;53.042;6.406;2023-05-13T11:53:50;22.60;1.00
54264;DHT22;40178;53.042;6.406;2023-05-13T11:56:17;22.60;1.00
54264;DHT22;40178;53.042;6.406;2023-05-13T11:58:43;22.70;1.00
54264;DHT22;40178;53.042;6.406;2023-05-13T12:01:13;22.80;1.00
54264;DHT22;40178;53.042;6.406;2023-05-13T12:03:39;22.80;1.00
54264;DHT22;40178;53.042;6.406;2023-05-13T12:06:05;22.40;1.00
54264;DHT22;40178;53.042;6.406;2023-05-13T12:08:30;22.40;1.00
54264;DHT22;40178;53.042;6.406;2023-05-13T12:10:58;22.30;1.00
54264;DHT22;40178;53.042;6.406;2023-05-13T12:13:24;22.30;1.00
54264;DHT22;40178;53.042;6.406;2023-05-13T12:15:50;22.50;1.00
54264;DHT22;40178;53.042;6.406;2023-05-13T12:18:16;22.50;99.90
54264;DHT22;40178;53.042;6.406;2023-05-13T12:20:41;22.70;99.90
54264;DHT22;40178;53.042;6.406;2023-05-13T12:23:09;23.00;99.90
54264;DHT22;40178;53.042;6.406;2023-05-13T12:25:40;23.00;99.90
54264;DHT22;40178;53.042;6.406;2023-05-13T12:30:39;22.70;99.90
54264;DHT22;40178;53.042;6.406;2023-05-13T12:33:11;22.70;99.90
54264;DHT22;40178;53.042;6.406;2023-05-13T12:35:37;22.60;99.90
54264;DHT22;40178;53.042;6.406;2023-05-13T12:38:04;22.80;99.90
54264;DHT22;40178;53.042;6.406;2023-05-13T12:40:30;22.40;99.90
54264;DHT22;40178;53.042;6.406;2023-05-13T12:43:00;22.60;99.90
54264;DHT22;40178;53.042;6.406;2023-05-13T12:45:30;22.30;99.90
54264;DHT22;40178;53.042;6.406;2023-05-13T12:47:57;22.10;99.90
54264;DHT22;40178;53.042;6.406;2023-05-13T12:50:23;21.70;99.90
54264;DHT22;40178;53.042;6.406;2023-05-13T12:52:49;21.60;99.90
54264;DHT22;40178;53.042;6.406;2023-05-13T12:55:14;21.90;99.90
54264;DHT22;40178;53.042;6.406;2023-05-13T12:57:41;22.20;99.90
54264;DHT22;40178;53.042;6.406;2023-05-13T13:00:08;22.50;99.90
54264;DHT22;40178;53.042;6.406;2023-05-13T13:02:39;22.60;99.90
54264;DHT22;40178;53.042;6.406;2023-05-13T13:05:05;22.50;99.90
54264;DHT22;40178;53.042;6.406;2023-05-13T13:07:31;22.40;99.90
54264;DHT22;40178;53.042;6.406;2023-05-13T13:09:56;22.50;99.90
54264;DHT22;40178;53.042;6.406;2023-05-13T13:12:22;22.50;99.90
54264;DHT22;40178;53.042;6.406;2023-05-13T13:14:48;22.60;99.90
54264;DHT22;40178;53.042;6.406;2023-05-13T13:17:13;22.70;99.90
54264;DHT22;40178;53.042;6.406;2023-05-13T13:19:39;22.60;99.90
54264;DHT22;40178;53.042;6.406;2023-05-13T13:22:05;22.40;99.90
54264;DHT22;40178;53.042;6.406;2023-05-13T13:24:30;22.40;99.90
54264;DHT22;40178;53.042;6.406;2023-05-13T13:26:56;22.20;99.90
54264;DHT22;40178;53.042;6.406;2023-05-13T13:29:22;21.80;99.90
54264;DHT22;40178;53.042;6.406;2023-05-13T13:31:48;21.50;99.90
54264;DHT22;40178;53.042;6.406;2023-05-13T13:34:13;21.40;99.90
54264;DHT22;40178;53.042;6.406;2023-05-13T13:36:39;21.50;99.90
54264;DHT22;40178;53.042;6.406;2023-05-13T13:39:05;21.80;99.90
54264;DHT22;40178;53.042;6.406;2023-05-13T13:41:31;22.10;99.90
54264;DHT22;40178;53.042;6.406;2023-05-13T13:43:56;22.30;99.90
54264;DHT22;40178;53.042;6.406;2023-05-13T13:46:22;22.40;99.90
54264;DHT22;40178;53.042;6.406;2023-05-13T13:48:48;22.70;99.90
54264;DHT22;40178;53.042;6.406;2023-05-13T13:51:13;23.00;99.90
54264;DHT22;40178;53.042;6.406;2023-05-13T13:53:39;23.00;99.90
54264;DHT22;40178;53.042;6.406;2023-05-13T13:56:05;22.80;99.90
54264;DHT22;40178;53.042;6.406;2023-05-13T13:58:31;22.90;99.90
54264;DHT22;40178;53.042;6.406;2023-05-13T14:00:56;23.00;99.90
54264;DHT22;40178;53.042;6.406;2023-05-13T14:03:22;23.10;99.90
54264;DHT22;40178;53.042;6.406;2023-05-13T14:05:48;23.10;99.90
54264;DHT22;40178;53.042;6.406;2023-05-13T14:08:14;23.30;99.90
54264;DHT22;40178;53.042;6.406;2023-05-13T14:10:39;23.20;99.90
54264;DHT22;40178;53.042;6.406;2023-05-13T14:13:05;23.30;99.90
54264;DHT22;40178;53.042;6.406;2023-05-13T14:15:31;23.10;99.90
54264;DHT22;40178;53.042;6.406;2023-05-13T14:17:57;23.20;99.90
54264;DHT22;40178;53.042;6.406;2023-05-13T14:20:23;23.20;99.90
54264;DHT22;40178;53.042;6.406;2023-05-13T14:22:49;23.30;99.90
54264;DHT22;40178;53.042;6.406;2023-05-13T14:25:15;23.40;99.90
54264;DHT22;40178;53.042;6.406;2023-05-13T14:27:41;23.40;99.90
54264;DHT22;40178;53.042;6.406;2023-05-13T14:30:07;23.50;99.90
54264;DHT22;40178;53.042;6.406;2023-05-13T14:32:33;23.50;99.90
54264;DHT22;40178;53.042;6.406;2023-05-13T14:34:59;23.70;99.90
54264;DHT22;40178;53.042;6.406;2023-05-13T14:37:24;23.50;99.90
54264;DHT22;40178;53.042;6.406;2023-05-13T14:39:50;23.70;99.90
54264;DHT22;40178;53.042;6.406;2023-05-13T14:42:16;23.70;99.90
54264;DHT22;40178;53.042;6.406;2023-05-13T14:44:42;23.90;99.90
54264;DHT22;40178;53.042;6.406;2023-05-13T14:47:08;24.00;99.90
54264;DHT22;40178;53.042;6.406;2023-05-13T14:49:33;24.00;99.90
54264;DHT22;40178;53.042;6.406;2023-05-13T14:51:59;23.90;99.90
54264;DHT22;40178;53.042;6.406;2023-05-13T14:54:25;24.00;99.00
54264;DHT22;40178;53.042;6.406;2023-05-13T14:56:51;24.10;94.60
54264;DHT22;40178;53.042;6.406;2023-05-13T14:59:17;24.10;74.70
54264;DHT22;40178;53.042;6.406;2023-05-13T15:01:43;24.10;59.50
54264;DHT22;40178;53.042;6.406;2023-05-13T15:04:08;24.20;91.90
54264;DHT22;40178;53.042;6.406;2023-05-13T15:06:35;24.50;99.90
54264;DHT22;40178;53.042;6.406;2023-05-13T15:09:01;24.70;99.90
54264;DHT22;40178;53.042;6.406;2023-05-13T15:11:26;24.90;99.90
54264;DHT22;40178;53.042;6.406;2023-05-13T15:13:52;25.20;99.90
54264;DHT22;40178;53.042;6.406;2023-05-13T15:16:18;25.10;64.40
54264;DHT22;40178;53.042;6.406;2023-05-13T15:18:43;25.50;85.70
54264;DHT22;40178;53.042;6.406;2023-05-13T15:21:09;25.80;93.50
54264;DHT22;40178;53.042;6.406;2023-05-13T15:23:35;25.60;1.00
54264;DHT22;40178;53.042;6.406;2023-05-13T15:26:00;25.50;1.00
54264;DHT22;40178;53.042;6.406;2023-05-13T15:28:26;25.50;1.00
54264;DHT22;40178;53.042;6.406;2023-05-13T15:30:53;25.40;1.00
54264;DHT22;40178;53.042;6.406;2023-05-13T15:33:19;25.50;1.00
54264;DHT22;40178;53.042;6.406;2023-05-13T15:35:44;25.70;1.00
54264;DHT22;40178;53.042;6.406;2023-05-13T15:38:10;25.80;1.00
54264;DHT22;40178;53.042;6.406;2023-05-13T15:40:37;26.00;1.00
54264;DHT22;40178;53.042;6.406;2023-05-13T15:43:02;26.00;1.00
54264;DHT22;40178;53.042;6.406;2023-05-13T15:45:28;26.40;1.00
54264;DHT22;40178;53.042;6.406;2023-05-13T15:47:54;26.40;1.00